createdAt,value
2024-02-29T05:00:58.804Z,30.43
2024-02-29T05:03:30.578Z,28.07
2024-02-29T05:06:02.310Z,31.00
2024-02-29T05:08:34.132Z,26.43
2024-02-29T05:11:05.917Z,31.13
2024-02-29T05:13:37.673Z,26.80
2024-02-29T05:16:10.786Z,22.53
2024-02-29T05:18:42.596Z,29.67
2024-02-29T05:21:14.337Z,29.67
2024-02-29T05:23:46.169Z,28.97
2024-02-29T05:26:18.636Z,27.87
2024-02-29T05:28:50.354Z,28.13
2024-02-29T05:31:23.436Z,28.17
2024-02-29T05:33:55.178Z,27.50
2024-02-29T05:36:27.028Z,33.60
2024-02-29T05:38:58.760Z,28.93
2024-02-29T05:41:30.483Z,30.30
2024-02-29T05:44:02.213Z,29.30
2024-02-29T05:46:35.351Z,29.65
2024-02-29T05:49:07.109Z,26.80
2024-02-29T05:51:38.850Z,29.90
2024-02-29T05:54:10.629Z,31.40
2024-02-29T05:56:42.458Z,32.43
2024-02-29T05:59:14.260Z,29.90
2024-02-29T06:01:47.491Z,31.77
2024-02-29T06:04:19.390Z,30.50
2024-02-29T06:06:51.214Z,27.57
2024-02-29T06:09:22.939Z,29.47
2024-02-29T06:11:54.659Z,32.43
2024-02-29T06:14:26.405Z,31.60
2024-02-29T06:16:59.526Z,28.07
2024-02-29T06:19:31.252Z,29.70
2024-02-29T06:22:03.160Z,29.73
2024-02-29T06:24:35.000Z,30.10
2024-02-29T06:27:06.746Z,28.80
2024-02-29T06:29:38.457Z,28.70
2024-02-29T06:32:11.548Z,27.37
2024-02-29T06:34:43.274Z,26.07
2024-02-29T06:37:15.110Z,28.83
2024-02-29T06:39:46.854Z,27.77
2024-02-29T06:42:18.682Z,29.03
2024-02-29T06:44:51.250Z,28.43
2024-02-29T06:47:24.321Z,32.63
2024-02-29T06:49:56.083Z,26.53
2024-02-29T06:52:27.887Z,35.70
2024-02-29T06:54:59.669Z,24.30
2024-02-29T06:57:31.479Z,24.90
2024-02-29T07:00:03.508Z,24.57
2024-02-29T07:02:36.654Z,26.23
2024-02-29T07:05:08.504Z,25.20
2024-02-29T07:07:40.250Z,24.27
2024-02-29T07:10:12.769Z,25.67
2024-02-29T07:12:44.576Z,24.63
2024-02-29T07:15:16.389Z,22.90
2024-02-29T07:17:49.568Z,25.23
2024-02-29T07:20:21.401Z,22.00
2024-02-29T07:22:53.135Z,23.77
2024-02-29T07:25:24.886Z,24.13
2024-02-29T07:27:57.955Z,22.17
2024-02-29T07:30:29.696Z,22.13
2024-02-29T07:33:03.038Z,28.40
2024-02-29T07:35:34.872Z,23.47
2024-02-29T07:38:06.590Z,23.57
2024-02-29T07:40:38.300Z,22.47
2024-02-29T07:43:10.617Z,20.77
2024-02-29T07:45:42.421Z,21.00
2024-02-29T07:48:15.632Z,23.77
2024-02-29T07:50:47.477Z,23.30
2024-02-29T07:53:19.238Z,24.27
2024-02-29T07:55:51.035Z,20.63
2024-02-29T07:58:22.891Z,20.23
2024-02-29T08:00:54.736Z,19.47
2024-02-29T08:03:27.844Z,18.83
2024-02-29T08:05:59.687Z,20.03
2024-02-29T08:08:31.431Z,20.30
2024-02-29T08:11:04.589Z,19.53
2024-02-29T08:13:36.307Z,21.97
2024-02-29T08:16:08.086Z,22.57
2024-02-29T08:18:41.264Z,22.77
2024-02-29T08:21:12.998Z,19.53
2024-02-29T08:23:44.746Z,18.23
2024-02-29T08:26:16.536Z,21.20
2024-02-29T08:28:48.272Z,21.20
2024-02-29T08:31:20.059Z,21.00
2024-02-29T08:33:53.376Z,21.77
2024-02-29T08:36:25.130Z,19.93
2024-02-29T08:38:56.885Z,19.03
2024-02-29T08:41:28.661Z,20.47
2024-02-29T08:44:00.400Z,20.87
2024-02-29T08:46:32.287Z,18.60
2024-02-29T08:49:05.552Z,18.27
2024-02-29T08:51:37.421Z,19.30
2024-02-29T08:54:10.810Z,17.10
2024-02-29T08:56:42.821Z,21.13
2024-02-29T08:59:17.103Z,18.40
2024-02-29T09:01:50.379Z,21.77
2024-02-29T09:04:23.653Z,18.30
2024-02-29T09:06:55.503Z,19.73
2024-02-29T09:09:27.194Z,20.60
2024-02-29T09:11:58.962Z,15.37
2024-02-29T09:14:30.730Z,16.60
2024-02-29T09:17:02.506Z,21.83
2024-02-29T09:19:35.656Z,18.00
2024-02-29T09:22:07.851Z,14.40
2024-02-29T09:24:39.651Z,19.00
2024-02-29T09:27:11.409Z,15.27
2024-02-29T09:29:43.246Z,14.57
2024-02-29T09:32:14.950Z,15.03
2024-02-29T09:34:51.922Z,15.50
2024-02-29T09:37:24.254Z,15.53
2024-02-29T09:39:56.443Z,16.10
2024-02-29T09:42:28.999Z,15.03
2024-02-29T09:45:00.796Z,17.00
2024-02-29T09:47:32.629Z,15.27
2024-02-29T09:50:06.560Z,14.90
2024-02-29T09:52:38.882Z,13.88
2024-02-29T09:55:13.871Z,14.25
2024-02-29T09:57:45.689Z,13.70
2024-02-29T10:00:17.915Z,16.13
2024-02-29T10:02:52.902Z,14.55
2024-02-29T10:05:28.012Z,14.97
2024-02-29T10:08:01.507Z,14.80
2024-02-29T10:10:34.715Z,12.90
2024-02-29T10:13:06.861Z,11.02
2024-02-29T10:15:39.024Z,14.13
2024-02-29T10:18:11.157Z,15.20
2024-02-29T10:20:44.694Z,12.70
2024-02-29T10:23:16.840Z,12.63
2024-02-29T10:25:48.941Z,12.30
2024-02-29T10:28:21.055Z,13.60
2024-02-29T10:30:53.264Z,12.52
2024-02-29T10:33:25.397Z,13.25
2024-02-29T10:35:58.833Z,10.50
2024-02-29T10:38:30.924Z,10.90
2024-02-29T10:41:03.029Z,10.80
2024-02-29T10:43:35.173Z,12.63
2024-02-29T10:46:07.523Z,9.65
2024-02-29T10:48:43.819Z,9.90
2024-02-29T10:51:19.839Z,11.30
2024-02-29T10:53:54.807Z,10.90
2024-02-29T10:56:27.745Z,9.55
2024-02-29T10:59:01.432Z,10.75
2024-02-29T11:01:33.792Z,13.07
2024-02-29T11:04:06.273Z,11.80
2024-02-29T11:06:40.264Z,12.18
2024-02-29T11:09:12.621Z,12.27
2024-02-29T11:11:44.484Z,12.50
2024-02-29T11:14:16.808Z,11.10
2024-02-29T11:16:48.572Z,9.98
2024-02-29T11:19:20.383Z,13.30
2024-02-29T11:21:53.536Z,9.82
2024-02-29T11:24:25.309Z,12.52
2024-02-29T11:26:57.145Z,15.45
2024-02-29T11:29:28.865Z,16.50
2024-02-29T11:32:02.006Z,12.57
2024-02-29T11:34:34.255Z,11.60
2024-02-29T11:37:07.760Z,9.00
2024-02-29T11:39:39.886Z,13.10
2024-02-29T11:42:11.619Z,11.88
2024-02-29T11:44:46.329Z,10.90
2024-02-29T11:47:18.000Z,11.52
2024-02-29T11:49:49.721Z,10.23
2024-02-29T11:52:22.807Z,12.80
2024-02-29T11:54:54.821Z,10.73
2024-02-29T11:57:26.530Z,9.48
2024-02-29T11:59:58.984Z,10.82
2024-02-29T12:02:30.723Z,10.05
2024-02-29T12:05:02.621Z,8.05
2024-02-29T12:07:35.757Z,11.55
2024-02-29T12:10:17.442Z,11.30
2024-02-29T12:12:49.250Z,8.45
2024-02-29T12:15:20.985Z,8.45
2024-02-29T12:17:52.893Z,9.15
2024-02-29T12:20:24.671Z,9.68
2024-02-29T12:22:59.661Z,10.75
2024-02-29T12:25:31.495Z,8.57
2024-02-29T12:28:03.309Z,8.70
2024-02-29T12:30:35.076Z,8.57
2024-02-29T12:33:06.867Z,9.07
2024-02-29T12:35:38.664Z,11.85
2024-02-29T12:38:15.730Z,10.10
2024-02-29T12:40:47.513Z,8.48
2024-02-29T12:43:19.326Z,8.60
2024-02-29T12:45:51.159Z,8.23
2024-02-29T12:48:22.881Z,8.50
2024-02-29T12:50:54.642Z,7.95
2024-02-29T12:53:27.706Z,8.98
2024-02-29T12:55:59.422Z,9.40
2024-02-29T12:58:31.184Z,10.93
2024-02-29T13:01:03.439Z,9.40
2024-02-29T13:03:35.365Z,12.38
2024-02-29T13:06:07.357Z,13.98
2024-02-29T13:08:40.437Z,8.35
2024-02-29T13:11:12.208Z,7.38
2024-02-29T13:13:43.968Z,10.23
2024-02-29T13:16:15.763Z,7.93
2024-02-29T13:18:47.524Z,8.43
2024-02-29T13:21:19.591Z,8.57
2024-02-29T13:23:52.629Z,9.73
2024-02-29T13:26:24.341Z,7.22
2024-02-29T13:28:56.043Z,11.70
2024-02-29T13:31:27.884Z,9.18
2024-02-29T13:33:59.694Z,7.60
2024-02-29T13:36:31.510Z,8.38
2024-02-29T13:39:04.633Z,7.28
2024-02-29T13:41:36.361Z,7.57
2024-02-29T13:44:08.056Z,7.15
2024-02-29T13:46:39.878Z,6.70
2024-02-29T13:49:21.386Z,7.35
2024-02-29T13:51:54.645Z,6.38
2024-02-29T13:54:27.727Z,6.18
2024-02-29T13:56:59.438Z,6.57
2024-02-29T13:59:31.152Z,7.03
2024-02-29T14:02:02.983Z,5.95
2024-02-29T14:04:34.886Z,6.05
2024-02-29T14:07:07.017Z,7.18
2024-02-29T14:09:40.136Z,5.95
2024-02-29T14:12:11.864Z,6.72
2024-02-29T14:14:43.578Z,6.22
2024-02-29T14:17:15.389Z,5.30
2024-02-29T14:19:47.120Z,9.13
2024-02-29T14:22:18.920Z,5.65
2024-02-29T14:24:52.077Z,5.25
2024-02-29T14:27:23.781Z,4.35
2024-02-29T14:29:55.479Z,6.63
2024-02-29T14:32:27.273Z,4.57
2024-02-29T14:34:58.975Z,5.80
2024-02-29T14:37:30.915Z,10.98
2024-02-29T14:40:04.707Z,3.83
2024-02-29T14:42:36.549Z,9.88
2024-02-29T14:45:09.290Z,2.45
2024-02-29T14:47:41.015Z,2.17
2024-02-29T14:50:12.766Z,4.25
2024-02-29T14:52:44.591Z,2.75
2024-02-29T14:55:17.737Z,3.13
2024-02-29T14:57:49.875Z,5.65
2024-02-29T15:00:21.609Z,2.45
2024-02-29T15:02:53.306Z,4.88
2024-02-29T15:05:25.021Z,2.78
2024-02-29T15:07:56.714Z,4.65
2024-02-29T15:10:29.818Z,5.20
2024-02-29T15:13:01.591Z,4.60
2024-02-29T15:15:33.335Z,5.05
2024-02-29T15:18:05.890Z,6.43
2024-02-29T15:20:37.644Z,6.65
2024-02-29T15:23:09.450Z,6.18
2024-02-29T15:25:42.581Z,6.35
2024-02-29T15:28:14.327Z,7.68
2024-02-29T15:30:46.077Z,5.07
2024-02-29T15:33:17.924Z,6.15
2024-02-29T15:35:49.732Z,5.65
2024-02-29T15:38:21.489Z,4.90
2024-02-29T15:40:54.550Z,6.30
2024-02-29T15:43:26.326Z,5.22
2024-02-29T15:45:58.224Z,5.80
2024-02-29T15:48:30.062Z,6.38
2024-02-29T15:51:01.786Z,5.72
2024-02-29T15:53:33.549Z,4.88
2024-02-29T15:56:06.965Z,4.38
2024-02-29T15:58:38.701Z,5.63
2024-02-29T16:01:10.433Z,8.02
2024-02-29T16:03:42.174Z,7.15
2024-02-29T16:06:13.966Z,6.72
2024-02-29T16:08:45.706Z,5.40
2024-02-29T16:11:18.774Z,7.30
2024-02-29T16:13:50.541Z,5.32
2024-02-29T16:16:22.323Z,6.20
2024-02-29T16:18:54.114Z,4.35
2024-02-29T16:21:25.876Z,7.38
2024-02-29T16:23:57.585Z,5.95
2024-02-29T16:26:30.640Z,5.55
2024-02-29T16:29:02.710Z,7.10
2024-02-29T16:31:34.452Z,6.65
2024-02-29T16:34:06.563Z,6.57
2024-02-29T16:36:38.661Z,7.90
2024-02-29T16:39:10.739Z,6.07
2024-02-29T16:41:44.159Z,6.63
2024-02-29T16:44:15.879Z,5.63
2024-02-29T16:46:47.766Z,5.65
2024-02-29T16:49:19.561Z,5.28
2024-02-29T16:51:51.401Z,6.20
2024-02-29T16:54:23.153Z,4.10
2024-02-29T16:56:56.257Z,8.52
2024-02-29T16:59:27.986Z,8.63
2024-02-29T17:01:59.802Z,5.32
2024-02-29T17:04:31.610Z,5.15
2024-02-29T17:07:03.488Z,5.30
2024-02-29T17:09:36.540Z,5.32
2024-02-29T17:12:11.139Z,4.93
2024-02-29T17:14:42.849Z,5.45
2024-02-29T17:17:14.533Z,8.13
2024-02-29T17:19:46.322Z,6.25
2024-02-29T17:22:18.068Z,4.47
2024-02-29T17:24:49.867Z,7.50
2024-02-29T17:27:22.944Z,5.93
2024-02-29T17:29:54.653Z,4.65
2024-02-29T17:32:26.438Z,7.07
2024-02-29T17:34:58.541Z,4.70
2024-02-29T17:37:30.918Z,5.50
2024-02-29T17:40:02.926Z,9.30
2024-02-29T17:42:36.077Z,6.35
2024-02-29T17:45:08.710Z,6.43
2024-02-29T17:47:40.444Z,5.38
2024-02-29T17:50:12.236Z,6.05
2024-02-29T17:52:43.956Z,4.93
2024-02-29T17:55:16.258Z,9.80
2024-02-29T17:57:49.431Z,5.53
2024-02-29T18:00:21.262Z,9.00
2024-02-29T18:02:52.975Z,6.28
2024-02-29T18:05:24.652Z,5.97
2024-02-29T18:08:02.277Z,5.50
2024-02-29T18:10:34.995Z,5.43
2024-02-29T18:13:08.090Z,6.15
2024-02-29T18:15:39.828Z,6.22
2024-02-29T18:18:11.580Z,5.88
2024-02-29T18:20:43.376Z,7.28
2024-02-29T18:23:15.616Z,11.57
2024-02-29T18:25:47.486Z,6.80
2024-02-29T18:28:20.699Z,8.98
2024-02-29T18:30:52.509Z,8.40
2024-02-29T18:33:24.239Z,7.23
2024-02-29T18:35:55.970Z,9.35
2024-02-29T18:38:27.664Z,9.87
2024-02-29T18:40:59.360Z,15.13
2024-02-29T18:43:32.470Z,6.75
2024-02-29T18:46:06.413Z,14.48
2024-02-29T18:48:38.987Z,8.27
2024-02-29T18:51:10.658Z,9.43
2024-02-29T18:53:42.370Z,8.27
2024-02-29T18:56:14.076Z,10.48
2024-02-29T18:58:47.178Z,6.77
2024-02-29T19:01:19.040Z,6.70
2024-02-29T19:03:50.895Z,11.03
2024-02-29T19:06:22.600Z,7.53
2024-02-29T19:08:54.456Z,9.55
2024-02-29T19:11:26.584Z,6.40
2024-02-29T19:13:59.679Z,10.73
2024-02-29T19:16:31.454Z,6.93
2024-02-29T19:19:03.180Z,8.05
2024-02-29T19:21:34.913Z,9.47
2024-02-29T19:24:06.806Z,7.93
2024-02-29T19:26:38.560Z,8.03
2024-02-29T19:29:11.668Z,8.53
2024-02-29T19:31:43.375Z,7.13
2024-02-29T19:34:15.122Z,8.33
2024-02-29T19:36:47.774Z,9.27
2024-02-29T19:39:19.512Z,7.60
2024-02-29T19:41:51.205Z,7.40
2024-02-29T19:44:24.262Z,9.97
2024-02-29T19:46:55.953Z,10.83
2024-02-29T19:49:27.696Z,12.40
2024-02-29T19:51:59.444Z,14.90
2024-02-29T19:54:31.193Z,10.53
2024-02-29T19:57:02.977Z,11.02
2024-02-29T19:59:36.057Z,12.82
2024-02-29T20:02:07.739Z,12.53
2024-02-29T20:04:39.645Z,13.27
2024-02-29T20:07:11.578Z,12.68
2024-02-29T20:09:46.321Z,11.90
2024-02-29T20:12:18.068Z,12.05
2024-02-29T20:14:51.116Z,11.00
2024-02-29T20:17:23.885Z,12.20
2024-02-29T20:19:55.587Z,13.50
2024-02-29T20:22:27.364Z,11.73
2024-02-29T20:24:59.177Z,17.53
2024-02-29T20:27:33.265Z,16.37
2024-02-29T20:30:08.839Z,13.60
2024-02-29T20:32:40.611Z,14.75
2024-02-29T20:35:12.346Z,13.33
2024-02-29T20:37:44.110Z,13.67
2024-02-29T20:40:16.217Z,15.83
2024-02-29T20:42:48.185Z,17.30
2024-02-29T20:45:21.268Z,16.13
2024-02-29T20:47:52.990Z,15.17
2024-02-29T20:50:24.966Z,16.03
2024-02-29T20:52:56.675Z,18.60
2024-02-29T20:55:28.515Z,18.63
2024-02-29T20:58:00.344Z,18.40
2024-02-29T21:00:33.411Z,17.07
2024-02-29T21:03:05.341Z,16.13
2024-02-29T21:05:37.026Z,17.17
2024-02-29T21:08:08.735Z,19.07
2024-02-29T21:10:40.444Z,19.70
2024-02-29T21:13:12.202Z,19.63
2024-02-29T21:15:45.342Z,19.37
2024-02-29T21:18:17.095Z,18.07
2024-02-29T21:20:48.800Z,21.13
2024-02-29T21:23:20.663Z,22.07
2024-02-29T21:25:52.504Z,23.80
2024-02-29T21:28:24.261Z,20.35
2024-02-29T21:30:57.358Z,20.95
2024-02-29T21:33:29.166Z,24.10
2024-02-29T21:36:00.965Z,21.90
2024-02-29T21:38:32.655Z,21.97
2024-02-29T21:41:04.701Z,23.90
2024-02-29T21:43:36.419Z,22.70
2024-02-29T21:46:11.685Z,23.80
2024-02-29T21:48:43.395Z,21.07
2024-02-29T21:51:17.334Z,23.83
2024-02-29T21:53:49.042Z,22.42
2024-02-29T21:56:20.745Z,24.87
2024-02-29T21:58:52.462Z,22.63
2024-02-29T22:01:25.632Z,23.40
2024-02-29T22:03:57.433Z,22.80
2024-02-29T22:06:29.158Z,24.60
2024-02-29T22:09:00.877Z,23.33
2024-02-29T22:11:32.627Z,22.88
2024-02-29T22:14:04.364Z,26.10
2024-02-29T22:16:42.067Z,22.53
2024-02-29T22:19:13.823Z,24.13
2024-02-29T22:21:45.578Z,23.80
2024-02-29T22:24:17.350Z,23.00
2024-02-29T22:26:49.073Z,24.83
2024-02-29T22:29:20.784Z,26.27
2024-02-29T22:31:53.851Z,25.03
2024-02-29T22:34:25.617Z,23.63
2024-02-29T22:36:57.372Z,24.90
2024-02-29T22:39:29.064Z,24.50
2024-02-29T22:42:02.088Z,25.30
2024-02-29T22:44:34.723Z,21.57
2024-02-29T22:47:07.911Z,22.97
2024-02-29T22:49:39.608Z,22.33
2024-02-29T22:52:11.364Z,25.47
2024-02-29T22:54:43.113Z,27.47
2024-02-29T22:57:14.833Z,26.63
2024-02-29T22:59:46.564Z,25.77
